Toone, Tennessee
Current Conditions -  °F | °C
As of 2:53 PM on Thursday 27 Nov 2014 (Local Time) from KMKL Reporting Station
Overcast Overcast  
Wind Chill: 31°   Ceiling: 2700
Heat Index: 38°   Visibility: 10mi
Dew Point: 27°   Wind: 9mph
Humidity: 65%   Direction: 10°N
Pressure: 30.47"   Gusts: NA
Location:  35.35°N, 88.95°W
Report Text: KMKL 272053Z 01008KT 10SM OVC027 03/M03 A3047 RMK AO2 SLP319 T00331028 56003
Loading
Personal Weather Stations






























Interactive Weather Map New forecast layout! Learn more

10-Day Weather Forecast

Advertisements
Track Severe Weather on mobile